Terminal Aerodrome Forecast
Issued by NWS

Current Version | Previous Version | Graphics & Text | Print | Product List | Glossary On
Versions: 1 2 3 4 5 6 7 8 9 10 11 12 13 14 15 16 17 18 19 20 21 22 23 24 25 26 27 28
000
FTUS41 KILN 152000 AAA
TAFLUK
TAF AMD
KLUK 152021Z 1520/1618 23006KT P6SM SCT040 OVC060
     FM152100 25006KT P6SM -SHRA VCTS OVC040CB
      TEMPO 1521/1524 4SM TSRA BR
     FM160000 25006KT P6SM VCSH OVC040
     FM160200 35006KT P6SM VCSH BKN025
     FM160700 36008KT 5SM BR BKN008
     FM161300 01008KT P6SM BKN015
     FM161600 01008KT P6SM SCT025=

USA.gov is the U.S. government's official web portal to all federal, state and local government web resources and services.